Time;durP1;ratioP1;P1;durP2;ratioP2;P2;SDS_P1;SDS_P2;PMS_P1;PMS_P2;Temp;Humidity;BMP_temperature;BMP_pressure;BME280_temperature;BME280_humidity;BME280_pressure;Samples;Min_cycle;Max_cycle;Signal;HPM_P1;HPM_P2
2022/04/10 00:01:13;;;;;;;8.65;1.17;;;;;;;8.59;52.04;100796.41;5010264;28;99073;-68
2022/04/10 00:03:40;;;;;;;10.18;1.48;;;;;;;8.43;52.63;100802.09;4999988;28;96878;-70
2022/04/10 00:06:06;;;;;;;8.82;1.58;;;;;;;8.61;52.09;100806.88;5007249;28;96865;-71
2022/04/10 00:08:33;;;;;;;3.90;1.30;;;;;;;8.56;52.12;100804.38;5002723;28;98943;-69
2022/04/10 00:10:59;;;;;;;7.75;1.77;;;;;;;8.61;52.09;100813.03;5000392;28;98920;-71
2022/04/10 00:13:26;;;;;;;3.80;1.45;;;;;;;8.68;51.74;100813.72;5005439;28;97254;-69
2022/04/10 00:15:52;;;;;;;8.38;1.35;;;;;;;8.45;52.94;100805.56;5001804;28;96934;-69
2022/04/10 00:18:20;;;;;;;6.05;1.52;;;;;;;8.28;53.07;100801.56;5001453;28;98913;-69
2022/04/10 00:20:46;;;;;;;8.25;1.48;;;;;;;8.64;52.08;100810.31;5002742;28;98870;-69
2022/04/10 00:23:13;;;;;;;7.35;2.30;;;;;;;8.14;53.38;100814.19;5003055;28;96768;-70
2022/04/10 00:25:39;;;;;;;8.30;2.08;;;;;;;7.91;53.60;100819.16;5003735;28;98697;-69
2022/04/10 00:28:06;;;;;;;5.80;1.38;;;;;;;8.40;52.79;100811.78;5003355;28;99307;-69
2022/04/10 00:30:32;;;;;;;3.92;1.52;;;;;;;8.58;52.34;100828.06;5004303;28;96783;-69
2022/04/10 00:32:59;;;;;;;7.45;1.77;;;;;;;8.78;51.54;100820.50;5004596;28;96730;-69
2022/04/10 00:35:27;;;;;;;6.57;1.70;;;;;;;8.72;51.62;100824.16;5007156;28;97399;-70
2022/04/10 00:37:53;;;;;;;3.42;1.42;;;;;;;9.04;51.05;100823.28;4999873;28;98163;-70
2022/04/10 00:40:20;;;;;;;6.28;1.58;;;;;;;9.19;50.74;100835.13;5003798;28;99903;-68
2022/04/10 00:42:48;;;;;;;10.07;1.98;;;;;;;8.87;51.36;100836.03;5010608;28;97263;-69
2022/04/10 00:45:16;;;;;;;6.57;1.63;;;;;;;8.96;51.18;100829.66;5002591;28;96838;-70
2022/04/10 00:47:44;;;;;;;6.15;2.17;;;;;;;8.96;50.80;100832.28;5002767;28;99215;-68
2022/04/10 00:50:12;;;;;;;6.50;1.98;;;;;;;9.06;50.89;100825.84;4998845;28;98979;-69
2022/04/10 00:52:41;;;;;;;5.82;1.75;;;;;;;8.46;52.79;100825.75;4998306;28;97167;-70
2022/04/10 00:55:08;;;;;;;10.27;2.15;;;;;;;8.66;51.99;100823.47;4998806;28;96867;-70
2022/04/10 00:57:36;;;;;;;5.20;2.00;;;;;;;8.62;52.08;100820.03;4997302;28;97654;-69
2022/04/10 01:00:05;;;;;;;6.30;2.17;;;;;;;8.64;52.18;100822.63;5002143;28;99334;-70
2022/04/10 01:02:31;;;;;;;4.80;2.03;;;;;;;8.57;52.45;100828.94;5003568;28;96912;-70
2022/04/10 01:04:57;;;;;;;4.50;2.30;;;;;;;8.63;51.99;100823.53;5004694;28;98095;-69
2022/04/10 01:07:24;;;;;;;3.75;2.20;;;;;;;8.76;51.94;100815.25;5003340;28;98911;-69
2022/04/10 01:09:52;;;;;;;7.82;2.78;;;;;;;8.61;51.71;100817.41;5001784;28;98788;-69
2022/04/10 01:12:18;;;;;;;13.75;2.50;;;;;;;8.25;52.64;100820.06;4998109;28;97240;-69
2022/04/10 01:14:44;;;;;;;5.50;2.28;;;;;;;8.41;52.61;100823.19;5003264;28;97656;-69
2022/04/10 01:17:11;;;;;;;4.68;2.30;;;;;;;8.17;53.26;100814.13;5007461;28;98858;-69
2022/04/10 01:19:39;;;;;;;5.70;2.50;;;;;;;8.46;52.68;100816.06;5001232;28;99100;-70
2022/04/10 01:22:07;;;;;;;6.97;1.98;;;;;;;8.32;53.14;100816.41;5003154;28;97065;-68
2022/04/10 01:24:36;;;;;;;5.13;1.92;;;;;;;6.87;57.07;100817.88;5002356;28;97003;-69
2022/04/10 01:27:03;;;;;;;6.50;2.13;;;;;;;7.43;55.54;100821.97;5002161;28;99623;-70
2022/04/10 01:29:30;;;;;;;4.72;1.70;;;;;;;8.09;53.68;100826.59;4997944;28;97551;-72
2022/04/10 01:31:57;;;;;;;5.72;2.13;;;;;;;7.92;54.67;100826.16;5008991;28;96807;-69
2022/04/10 01:34:24;;;;;;;6.88;2.25;;;;;;;8.16;53.89;100822.91;5001003;28;97243;-70
2022/04/10 01:36:50;;;;;;;8.65;2.45;;;;;;;7.83;54.41;100819.31;4995163;28;98943;-70
2022/04/10 01:39:17;;;;;;;9.75;2.40;;;;;;;8.14;53.53;100824.72;5001381;28;97439;-70
2022/04/10 01:41:46;;;;;;;6.90;2.70;;;;;;;8.10;53.45;100817.81;5001622;28;99131;-71
2022/04/10 01:44:13;;;;;;;9.77;2.17;;;;;;;7.83;54.36;100826.34;5008492;28;96807;-69
2022/04/10 01:46:40;;;;;;;9.93;2.00;;;;;;;7.86;54.36;100826.28;5001493;28;98977;-69
2022/04/10 01:49:08;;;;;;;5.57;2.10;;;;;;;7.80;54.43;100822.03;5004314;28;99143;-69
2022/04/10 01:51:35;;;;;;;9.07;2.40;;;;;;;7.42;54.92;100808.84;5003503;28;97302;-70
2022/04/10 01:54:02;;;;;;;8.70;2.72;;;;;;;7.68;55.11;100826.72;5003457;28;97458;-70
2022/04/10 01:56:28;;;;;;;7.25;2.53;;;;;;;7.60;55.33;100822.47;5001000;28;99811;-69
2022/04/10 01:58:56;;;;;;;9.52;2.70;;;;;;;7.96;54.12;100830.41;5005564;28;99424;-69
2022/04/10 02:01:24;;;;;;;7.72;2.25;;;;;;;7.27;55.71;100831.09;5001443;28;98919;-70
2022/04/10 02:03:51;;;;;;;8.27;2.75;;;;;;;7.44;55.61;100826.34;4997147;28;97670;-70
2022/04/10 02:06:18;;;;;;;7.70;2.17;;;;;;;7.76;55.19;100827.38;4999357;28;102044;-69
2022/04/10 02:08:45;;;;;;;9.88;2.78;;;;;;;6.66;56.86;100831.41;5000353;28;98826;-68
2022/04/10 02:11:12;;;;;;;11.75;2.38;;;;;;;7.22;56.65;100831.16;4998760;28;97158;-70
2022/04/10 02:13:39;;;;;;;6.18;2.22;;;;;;;7.42;55.64;100820.22;4999879;28;96809;-70
2022/04/10 02:16:08;;;;;;;8.82;2.45;;;;;;;7.15;56.11;100833.97;5003965;28;98267;-69
2022/04/10 02:18:35;;;;;;;6.70;2.65;;;;;;;7.61;55.25;100818.94;4995567;28;100260;-69
2022/04/10 02:21:01;;;;;;;7.43;2.17;;;;;;;7.96;54.04;100827.78;5002550;28;96749;-68
2022/04/10 02:23:30;;;;;;;8.98;2.50;;;;;;;7.63;54.86;100820.66;4994333;28;96918;-69
2022/04/10 02:25:56;;;;;;;8.73;2.55;;;;;;;7.08;56.83;100832.34;5000162;28;99024;-69
2022/04/10 02:28:22;;;;;;;9.45;2.40;;;;;;;7.46;55.32;100831.56;4998876;28;97473;-69
2022/04/10 02:30:49;;;;;;;5.95;2.33;;;;;;;7.04;57.21;100838.56;5002071;28;96792;-70
2022/04/10 02:33:17;;;;;;;12.93;2.88;;;;;;;7.42;55.84;100838.63;5001681;28;97711;-70
2022/04/10 02:35:44;;;;;;;11.95;3.67;;;;;;;7.28;56.56;100835.47;5000612;28;101792;-70
2022/04/10 02:38:10;;;;;;;14.15;2.92;;;;;;;7.28;56.03;100837.22;4996161;28;98929;-69
2022/04/10 02:40:37;;;;;;;9.80;2.80;;;;;;;7.90;54.20;100835.81;5006962;28;97223;-70
2022/04/10 02:43:04;;;;;;;7.70;2.60;;;;;;;7.83;54.53;100831.59;4999143;28;96975;-70
2022/04/10 02:45:30;;;;;;;10.80;2.70;;;;;;;7.78;54.53;100831.72;5005155;28;98825;-70
2022/04/10 02:47:57;;;;;;;9.30;2.88;;;;;;;7.69;55.01;100842.44;5000271;28;102359;-70
2022/04/10 02:50:25;;;;;;;8.68;2.80;;;;;;;7.03;56.08;100849.94;4998596;28;96745;-69
2022/04/10 02:52:53;;;;;;;11.00;3.25;;;;;;;7.51;55.78;100846.34;5001017;28;97020;-70
2022/04/10 02:55:20;;;;;;;8.55;3.00;;;;;;;7.33;55.66;100848.50;5001126;28;99579;-70
2022/04/10 02:57:46;;;;;;;8.43;2.90;;;;;;;7.36;56.22;100848.41;4998018;28;98982;-69
2022/04/10 03:00:13;;;;;;;12.18;3.28;;;;;;;6.80;57.05;100856.53;4997733;28;98037;-70
2022/04/10 03:02:40;;;;;;;12.50;3.42;;;;;;;6.69;57.76;100853.22;4996416;28;96766;-69
2022/04/10 03:05:08;;;;;;;7.60;2.92;;;;;;;6.18;58.92;100844.47;5001564;28;99153;-69
2022/04/10 03:07:36;;;;;;;10.07;3.10;;;;;;;6.87;57.91;100857.28;4998052;28;101359;-70
2022/04/10 03:10:02;;;;;;;12.18;2.97;;;;;;;7.00;57.67;100852.66;4996287;28;96702;-70
2022/04/10 03:12:29;;;;;;;11.95;3.08;;;;;;;7.27;56.30;100852.13;4996628;28;98766;-69
2022/04/10 03:14:55;;;;;;;16.65;3.60;;;;;;;7.17;56.88;100847.94;4999074;28;100119;-71
2022/04/10 03:17:22;;;;;;;11.95;3.30;;;;;;;7.27;55.90;100856.50;5006114;28;98822;-69
2022/04/10 03:19:48;;;;;;;17.02;3.17;;;;;;;7.76;54.60;100856.31;4999260;28;96848;-70
2022/04/10 03:22:15;;;;;;;12.32;3.05;;;;;;;7.66;54.50;100846.91;5006330;28;96935;-71
2022/04/10 03:24:43;;;;;;;12.65;3.25;;;;;;;7.47;55.12;100857.84;5002212;28;99013;-68
2022/04/10 03:27:09;;;;;;;7.40;2.70;;;;;;;7.51;55.02;100858.63;4998749;28;99259;-69
2022/04/10 03:29:35;;;;;;;11.40;2.92;;;;;;;7.27;55.43;100856.50;5005735;28;96824;-69
2022/04/10 03:32:02;;;;;;;10.32;2.92;;;;;;;7.07;56.46;100851.63;5003041;28;96821;-70
2022/04/10 03:34:28;;;;;;;11.32;2.85;;;;;;;7.10;56.24;100864.69;5000617;28;98131;-70
2022/04/10 03:36:55;;;;;;;11.75;3.10;;;;;;;7.08;56.32;100866.53;5001025;28;98282;-70
2022/04/10 03:39:21;;;;;;;12.05;3.42;;;;;;;7.43;55.40;100866.66;5005789;28;96728;-71
2022/04/10 03:41:49;;;;;;;14.65;2.97;;;;;;;7.11;56.26;100876.94;4998410;28;98971;-69
2022/04/10 03:44:16;;;;;;;14.10;2.63;;;;;;;7.38;55.56;100879.03;5003833;28;98890;-68
2022/04/10 03:46:42;;;;;;;8.70;2.38;;;;;;;7.18;56.67;100882.06;4999585;28;101136;-69
2022/04/10 03:49:09;;;;;;;14.35;2.78;;;;;;;7.57;55.54;100890.91;4993324;28;96864;-70
2022/04/10 03:51:38;;;;;;;11.02;3.40;;;;;;;7.57;54.48;100885.66;5001040;28;97045;-68
2022/04/10 03:54:05;;;;;;;13.32;2.88;;;;;;;7.28;55.75;100880.13;4999546;28;98494;-70
2022/04/10 03:56:31;;;;;;;12.90;3.10;;;;;;;6.99;56.39;100885.06;5002374;28;98050;-69
2022/04/10 03:58:59;;;;;;;15.07;2.90;;;;;;;7.43;55.35;100890.31;5002107;28;97167;-69
2022/04/10 04:01:26;;;;;;;8.73;3.25;;;;;;;7.14;55.89;100896.19;5004832;28;98533;-70
2022/04/10 04:03:52;;;;;;;11.15;2.60;;;;;;;7.36;55.66;100898.34;5002528;28;98185;-69
2022/04/10 04:06:19;;;;;;;12.07;2.83;;;;;;;7.50;54.82;100896.31;4997272;28;99038;-69
2022/04/10 04:08:46;;;;;;;13.77;3.25;;;;;;;7.29;55.33;100908.13;4996715;28;97004;-68
2022/04/10 04:11:12;;;;;;;19.35;2.90;;;;;;;7.14;56.05;100909.31;5005313;28;96929;-70
2022/04/10 04:13:40;;;;;;;9.43;2.65;;;;;;;7.19;55.61;100910.09;5001815;28;98895;-69
2022/04/10 04:16:08;;;;;;;16.05;3.10;;;;;;;7.02;55.89;100914.78;5001275;28;99785;-69
2022/04/10 04:18:35;;;;;;;17.25;2.97;;;;;;;7.63;54.85;100910.09;5000227;28;96670;-69
2022/04/10 04:21:01;;;;;;;12.93;3.20;;;;;;;7.80;54.06;100900.97;4998436;28;97835;-70
2022/04/10 04:23:28;;;;;;;15.70;2.53;;;;;;;7.12;55.59;100920.72;5002804;28;97670;-69
2022/04/10 04:25:55;;;;;;;9.05;2.80;;;;;;;7.63;54.71;100929.38;4999728;28;98860;-69
2022/04/10 04:28:21;;;;;;;8.98;2.95;;;;;;;7.47;54.35;100923.56;5002039;28;97278;-69
2022/04/10 04:30:48;;;;;;;15.68;2.90;;;;;;;7.45;54.54;100927.09;5003708;28;97548;-69
2022/04/10 04:33:17;;;;;;;13.98;3.00;;;;;;;7.44;54.81;100936.75;5003199;28;97667;-70
2022/04/10 04:35:43;;;;;;;15.73;3.00;;;;;;;7.47;54.76;100941.97;5007314;28;98852;-69
2022/04/10 04:38:10;;;;;;;16.80;3.40;;;;;;;7.27;55.33;100943.25;4999914;28;97132;-71
2022/04/10 04:40:36;;;;;;;17.25;2.63;;;;;;;7.25;54.91;100938.00;5003527;28;96837;-70
2022/04/10 04:43:03;;;;;;;10.32;2.30;;;;;;;7.57;54.13;100932.97;4999849;28;98925;-69
2022/04/10 04:45:29;;;;;;;12.50;3.63;;;;;;;7.35;54.65;100930.81;5002602;28;98751;-69
2022/04/10 04:47:56;;;;;;;11.50;3.42;;;;;;;7.20;55.52;100934.59;4995776;28;97811;-68
2022/04/10 04:50:24;;;;;;;11.60;2.95;;;;;;;7.10;55.24;100935.66;5002856;28;99176;-69
2022/04/10 04:52:50;;;;;;;14.95;3.53;;;;;;;7.49;54.51;100942.78;4999503;28;99920;-69
2022/04/10 04:55:17;;;;;;;12.32;2.28;;;;;;;7.73;53.66;100940.56;5007985;28;98841;-69
2022/04/10 04:57:43;;;;;;;9.20;2.47;;;;;;;7.67;53.61;100940.69;4997279;28;97453;-69
2022/04/10 05:00:11;;;;;;;9.43;2.60;;;;;;;7.48;53.92;100943.66;5000387;28;96920;-70
2022/04/10 05:02:38;;;;;;;15.20;3.15;;;;;;;7.87;53.18;100949.03;4996853;28;100017;-70
2022/04/10 05:05:05;;;;;;;13.05;2.45;;;;;;;7.75;53.67;100950.16;5005155;28;98887;-68
2022/04/10 05:07:33;;;;;;;11.65;2.60;;;;;;;7.48;54.27;100964.72;5005028;28;97170;-70
2022/04/10 05:09:59;;;;;;;10.32;2.35;;;;;;;7.46;54.26;100960.41;4999466;28;98086;-69
2022/04/10 05:12:26;;;;;;;12.70;3.13;;;;;;;7.60;54.20;100961.88;5003929;28;97821;-71
2022/04/10 05:14:52;;;;;;;10.38;2.60;;;;;;;7.57;54.19;100963.69;5002356;28;98556;-69
2022/04/10 05:17:19;;;;;;;16.83;2.97;;;;;;;7.08;55.91;100977.75;5001934;28;96808;-70
2022/04/10 05:19:45;;;;;;;11.50;2.45;;;;;;;7.02;56.03;100977.00;5002792;28;96880;-70
2022/04/10 05:22:11;;;;;;;13.50;2.17;;;;;;;7.34;55.41;100977.28;5001801;28;99009;-69
2022/04/10 05:24:39;;;;;;;9.15;2.30;;;;;;;7.58;54.35;100989.09;5006451;28;99323;-69
2022/04/10 05:27:05;;;;;;;12.55;2.90;;;;;;;7.94;53.57;100990.97;4994139;28;96761;-70
2022/04/10 05:29:32;;;;;;;15.80;2.65;;;;;;;8.05;52.82;100996.03;5002181;28;97507;-69
2022/04/10 05:31:58;;;;;;;13.27;2.70;;;;;;;7.76;53.30;100998.38;4993853;28;99172;-68
2022/04/10 05:34:24;;;;;;;14.38;3.05;;;;;;;8.10;52.18;100996.78;5001602;28;98861;-70
2022/04/10 05:36:51;;;;;;;13.80;3.28;;;;;;;8.24;52.34;101002.63;4997362;28;98824;-69
2022/04/10 05:39:17;;;;;;;18.00;2.53;;;;;;;8.04;52.77;101007.44;5000916;28;99167;-69
2022/04/10 05:41:45;;;;;;;16.10;2.65;;;;;;;8.08;52.18;101006.47;4998705;28;99303;-69
2022/04/10 05:44:12;;;;;;;13.57;2.60;;;;;;;8.01;52.37;101007.47;4997024;28;101923;-68
2022/04/10 05:46:38;;;;;;;11.55;2.60;;;;;;;7.55;53.16;101011.03;5002503;28;96757;-70
2022/04/10 05:49:06;;;;;;;9.18;2.70;;;;;;;8.10;52.71;101011.69;5007590;28;97530;-69
2022/04/10 05:51:32;;;;;;;14.52;3.00;;;;;;;7.28;54.67;101006.31;5006905;28;99198;-70
2022/04/10 05:53:58;;;;;;;13.35;2.70;;;;;;;7.60;53.79;101017.09;5004486;28;100614;-69
2022/04/10 05:56:25;;;;;;;14.43;2.40;;;;;;;7.88;52.71;101021.78;4999534;28;96867;-69
2022/04/10 05:58:53;;;;;;;14.43;2.55;;;;;;;7.86;52.79;101024.47;5000909;28;96785;-71
2022/04/10 06:01:19;;;;;;;13.90;2.25;;;;;;;8.04;52.47;101030.25;5000731;28;99292;-70
2022/04/10 06:03:46;;;;;;;15.90;3.40;;;;;;;7.27;53.84;101022.97;5000131;28;98766;-69
2022/04/10 06:06:12;;;;;;;12.70;3.05;;;;;;;7.28;54.80;101027.34;5001279;28;96781;-69
2022/04/10 06:08:39;;;;;;;16.63;2.60;;;;;;;8.06;52.90;101026.72;5005457;28;97173;-70
2022/04/10 06:11:05;;;;;;;18.95;2.83;;;;;;;7.82;53.41;101029.81;5000987;28;98898;-70
2022/04/10 06:13:32;;;;;;;17.25;3.00;;;;;;;8.43;51.01;101026.81;4999006;28;99179;-69
2022/04/10 06:16:00;;;;;;;10.43;2.50;;;;;;;8.86;49.84;101021.41;5004925;28;97007;-70
2022/04/10 06:18:26;;;;;;;11.27;2.55;;;;;;;9.05;49.57;101027.09;5005527;28;98706;-71
2022/04/10 06:20:53;;;;;;;13.75;2.53;;;;;;;8.40;50.72;101030.34;5000209;28;99177;-70
2022/04/10 06:23:21;;;;;;;13.35;2.40;;;;;;;8.57;50.73;101029.13;4994851;28;98890;-69
2022/04/10 06:25:48;;;;;;;11.43;2.30;;;;;;;8.75;50.56;101037.47;5005483;28;96818;-69
2022/04/10 06:28:15;;;;;;;25.27;2.65;;;;;;;8.15;51.73;101044.91;5000940;28;99270;-68
2022/04/10 06:30:43;;;;;;;14.63;2.53;;;;;;;8.49;50.66;101042.47;5006096;28;101659;-70
2022/04/10 06:33:11;;;;;;;17.15;2.78;;;;;;;7.96;50.94;101040.94;5003828;28;99949;-70
2022/04/10 06:35:39;;;;;;;15.20;2.63;;;;;;;8.30;51.45;101051.63;5006107;28;97651;-69
2022/04/10 06:38:05;;;;;;;18.38;2.35;;;;;;;8.18;51.47;101051.91;5000623;28;96964;-70
2022/04/10 06:40:32;;;;;;;16.38;2.40;;;;;;;8.35;51.38;101057.69;5007275;28;99335;-70
2022/04/10 06:42:58;;;;;;;10.98;2.92;;;;;;;8.09;51.75;101060.84;4996090;28;98276;-71
2022/04/10 06:45:26;;;;;;;15.50;3.25;;;;;;;8.21;51.43;101057.94;4993660;28;99119;-70
2022/04/10 06:47:53;;;;;;;14.00;2.50;;;;;;;8.24;51.72;101068.44;4998003;28;96801;-72
2022/04/10 06:50:20;;;;;;;15.93;3.00;;;;;;;8.54;50.55;101063.44;5001431;28;99673;-69
2022/04/10 06:52:47;;;;;;;12.82;2.92;;;;;;;8.67;50.20;101064.88;4997649;28;100331;-70
2022/04/10 06:55:13;;;;;;;14.73;2.65;;;;;;;8.80;50.13;101064.56;5002478;28;96778;-69
2022/04/10 06:57:40;;;;;;;10.95;2.42;;;;;;;8.53;50.27;101062.59;5000931;28;98597;-70
2022/04/10 07:00:07;;;;;;;16.52;2.58;;;;;;;8.45;50.18;101063.66;5000133;28;100092;-71
2022/04/10 07:02:34;;;;;;;14.35;2.72;;;;;;;8.29;50.56;101077.09;4999042;28;99343;-70
2022/04/10 07:05:02;;;;;;;14.43;3.03;;;;;;;9.20;49.17;101069.75;4999940;28;97011;-70
2022/04/10 07:07:30;;;;;;;16.88;2.53;;;;;;;9.11;49.14;101066.50;4997351;28;97027;-71
2022/04/10 07:09:58;;;;;;;14.65;2.67;;;;;;;9.14;48.80;101071.69;5002124;28;101389;-70
2022/04/10 07:12:25;;;;;;;20.55;3.05;;;;;;;9.44;47.72;101073.56;4999296;28;98781;-70
2022/04/10 07:14:51;;;;;;;11.82;2.05;;;;;;;8.75;48.52;101071.72;5004222;28;98934;-70
2022/04/10 07:17:19;;;;;;;17.20;2.50;;;;;;;8.82;48.96;101082.13;4998787;28;99422;-70
2022/04/10 07:19:46;;;;;;;17.60;2.95;;;;;;;8.77;49.55;101079.59;5002829;28;101814;-70
2022/04/10 07:24:58;;;;;;;9.88;2.13;;;;;;;9.73;46.34;101085.13;5003427;28;96789;-70
2022/04/10 07:27:24;;;;;;;14.15;2.35;;;;;;;9.60;47.23;101090.72;4998324;28;99310;-70
2022/04/10 07:29:51;;;;;;;13.73;2.92;;;;;;;9.57;47.00;101087.31;5000381;28;97301;-70
2022/04/10 07:32:17;;;;;;;17.85;3.00;;;;;;;9.86;46.62;101095.31;5001473;28;102500;-72
2022/04/10 07:34:44;;;;;;;9.32;2.30;;;;;;;9.72;47.33;101097.44;4998341;28;98690;-69
2022/04/10 07:37:10;;;;;;;13.57;2.25;;;;;;;9.52;46.79;101091.81;5005968;28;97191;-70
2022/04/10 07:39:36;;;;;;;13.82;2.38;;;;;;;9.07;48.06;101096.47;4998951;28;98985;-70
2022/04/10 07:42:05;;;;;;;9.52;2.67;;;;;;;9.25;48.21;101103.06;4995653;28;99871;-70
2022/04/10 07:44:34;;;;;;;15.45;2.50;;;;;;;8.86;48.31;101105.72;5001257;28;97076;-70
2022/04/10 07:49:45;;;;;;;11.40;2.67;;;;;;;9.19;48.22;101115.47;4999667;28;97189;-70
2022/04/10 07:52:12;;;;;;;15.15;2.63;;;;;;;9.23;48.36;101118.94;5001331;28;99539;-69
2022/04/10 07:54:39;;;;;;;9.02;2.17;;;;;;;8.99;49.15;101112.44;5003842;28;96882;-70
2022/04/10 07:57:07;;;;;;;14.40;2.72;;;;;;;9.86;46.77;101119.06;5002563;28;96813;-70
2022/04/10 07:59:43;;;;;;;16.25;2.63;;;;;;;9.46;48.22;101115.72;5000851;28;98245;-70
2022/04/10 08:02:09;;;;;;;13.88;2.78;;;;;;;9.56;47.31;101119.88;5003999;28;98765;-70
2022/04/10 08:04:36;;;;;;;19.30;2.83;;;;;;;9.83;47.47;101134.13;5000024;28;96703;-71
2022/04/10 08:07:03;;;;;;;14.65;3.17;;;;;;;9.32;48.54;101136.31;4997953;28;97842;-68
2022/04/10 08:09:30;;;;;;;12.95;2.83;;;;;;;9.18;48.75;101139.28;5002938;28;98844;-70
2022/04/10 08:11:56;;;;;;;19.85;2.83;;;;;;;9.94;47.10;101145.25;5009871;28;99112;-70
2022/04/10 08:14:24;;;;;;;10.38;2.38;;;;;;;10.40;46.02;101144.91;5000968;28;97427;-69
2022/04/10 08:16:50;;;;;;;11.73;2.67;;;;;;;10.59;45.26;101148.75;4999811;28;97555;-70
2022/04/10 08:19:17;;;;;;;19.98;3.28;;;;;;;9.82;46.73;101146.47;5001328;28;99245;-72
2022/04/10 08:21:43;;;;;;;18.92;3.25;;;;;;;10.51;44.98;101150.72;5002229;28;98046;-71
2022/04/10 08:24:09;;;;;;;13.48;2.40;;;;;;;10.68;44.17;101148.47;5002783;28;97071;-71
2022/04/10 08:26:37;;;;;;;16.88;3.80;;;;;;;10.73;43.69;101150.97;5001078;28;97208;-70
2022/04/10 08:29:03;;;;;;;14.77;2.03;;;;;;;10.75;44.31;101152.69;5002214;28;98638;-70
2022/04/10 08:31:31;;;;;;;20.45;2.92;;;;;;;11.37;42.53;101159.56;5007478;28;98288;-69
2022/04/10 08:33:58;;;;;;;16.10;3.33;;;;;;;11.37;42.42;101160.44;5011361;28;97084;-70
2022/04/10 08:36:25;;;;;;;13.98;2.97;;;;;;;11.17;42.71;101162.84;5000188;28;97086;-71
2022/04/10 08:38:52;;;;;;;11.02;2.67;;;;;;;11.84;41.26;101150.94;5006378;28;102887;-69
2022/04/10 08:41:21;;;;;;;7.03;2.40;;;;;;;11.80;41.06;101154.63;5003918;28;98185;-71
2022/04/10 08:43:47;;;;;;;11.23;2.55;;;;;;;11.83;40.59;101154.50;4999583;28;99242;-70
2022/04/10 08:46:16;;;;;;;11.02;2.60;;;;;;;12.23;40.39;101153.97;5007645;28;97224;-70
2022/04/10 08:48:45;;;;;;;12.98;2.30;;;;;;;11.77;40.60;101159.16;4999629;28;98489;-71
2022/04/10 08:51:12;;;;;;;17.60;3.17;;;;;;;10.94;42.53;101152.97;5002678;28;98850;-71
2022/04/10 08:53:39;;;;;;;12.57;3.17;;;;;;;11.22;41.75;101160.94;5000175;28;96944;-70
2022/04/10 08:56:08;;;;;;;12.50;2.67;;;;;;;11.51;41.56;101162.63;5001778;28;96817;-70
2022/04/10 08:58:35;;;;;;;14.25;2.92;;;;;;;10.71;43.29;101172.16;4997651;28;99087;-71
2022/04/10 09:01:02;;;;;;;18.70;2.90;;;;;;;10.50;44.02;101169.28;5007634;28;98946;-71
2022/04/10 09:03:29;;;;;;;14.15;2.83;;;;;;;10.68;44.35;101179.34;5005895;28;98722;-70
2022/04/10 09:06:04;;;;;;;13.65;2.53;;;;;;;10.59;44.60;101185.75;5008104;28;96953;-70
2022/04/10 09:08:32;;;;;;;13.47;2.50;;;;;;;11.36;44.25;101179.00;4996154;28;99282;-70
2022/04/10 09:11:01;;;;;;;14.98;2.95;;;;;;;11.90;42.80;101176.34;4997742;28;99518;-71
2022/04/10 09:13:33;;;;;;;15.23;3.03;;;;;;;10.63;44.57;101184.72;5001495;28;96895;-70
2022/04/10 09:16:08;;;;;;;14.05;2.95;;;;;;;11.04;44.19;101185.28;5001816;28;97875;-70
2022/04/10 09:18:54;;;;;;;12.73;2.50;;;;;;;11.36;43.37;101190.44;4998635;28;99202;-70
2022/04/10 09:21:28;;;;;;;19.10;3.20;;;;;;;10.90;43.81;101185.69;5001388;28;97924;-71
2022/04/10 09:24:03;;;;;;;13.02;2.58;;;;;;;11.54;42.42;101186.38;4999956;28;96959;-70
2022/04/10 09:26:44;;;;;;;12.50;3.05;;;;;;;10.53;43.81;101180.63;5003189;28;97133;-70
2022/04/10 09:29:11;;;;;;;19.48;3.50;;;;;;;11.12;43.21;101183.28;5004285;28;97835;-68
2022/04/10 09:31:38;;;;;;;13.73;3.25;;;;;;;11.78;42.03;101188.22;4998305;28;99371;-72
2022/04/10 09:34:06;;;;;;;15.35;2.70;;;;;;;11.46;42.20;101180.44;5011443;28;97412;-69
2022/04/10 09:36:39;;;;;;;17.42;3.60;;;;;;;11.20;42.86;101183.91;5002491;28;98436;-69
2022/04/10 09:39:09;;;;;;;20.60;3.30;;;;;;;10.40;43.14;101179.25;4996456;28;102092;-71
2022/04/10 09:41:36;;;;;;;9.88;3.10;;;;;;;11.13;42.26;101193.81;4993991;28;98863;-68
2022/04/10 09:44:15;;;;;;;12.57;2.25;;;;;;;11.58;41.75;101180.03;5003874;28;96940;-69
2022/04/10 09:46:42;;;;;;;9.18;2.28;;;;;;;12.13;41.78;101181.75;4987612;28;98059;-70
2022/04/10 09:49:19;;;;;;;16.77;2.78;;;;;;;11.48;42.81;101187.44;5005858;28;99407;-71
2022/04/10 09:52:00;;;;;;;11.15;2.28;;;;;;;12.01;42.30;101192.75;4995369;28;99054;-72
2022/04/10 09:54:34;;;;;;;15.70;3.35;;;;;;;11.87;41.60;101181.78;5004706;28;98473;-69
2022/04/10 09:57:02;;;;;;;14.18;2.47;;;;;;;11.36;42.05;101190.44;5001925;28;97099;-70
2022/04/10 09:59:35;;;;;;;12.02;2.40;;;;;;;11.64;41.26;101195.72;5003206;28;99782;-69
2022/04/10 10:02:04;;;;;;;9.40;2.05;;;;;;;11.36;41.57;101187.78;4997677;28;97839;-71
2022/04/10 10:04:32;;;;;;;10.52;2.40;;;;;;;11.66;40.55;101182.44;5002520;28;96741;-70
2022/04/10 10:07:02;;;;;;;16.95;5.40;;;;;;;12.54;38.87;101176.72;4997074;28;97368;-69
2022/04/10 10:09:32;;;;;;;16.27;2.53;;;;;;;12.47;38.37;101176.06;5008323;28;99611;-70
2022/04/10 10:12:00;;;;;;;8.80;2.35;;;;;;;12.54;37.14;101164.31;4999352;28;99211;-69
2022/04/10 10:14:29;;;;;;;8.05;2.38;;;;;;;11.87;37.30;101176.47;5000243;28;97259;-70
2022/04/10 10:16:57;;;;;;;14.02;2.33;;;;;;;11.53;37.21;101177.56;5002612;28;97478;-69
2022/04/10 10:19:24;;;;;;;7.55;2.17;;;;;;;11.55;37.35;101180.16;5002309;28;98932;-70
2022/04/10 10:21:52;;;;;;;9.75;2.30;;;;;;;11.60;36.99;101172.94;4996896;28;97869;-69
2022/04/10 10:24:21;;;;;;;11.05;2.55;;;;;;;11.83;36.67;101175.69;4995258;28;97220;-70
2022/04/10 10:27:01;;;;;;;10.65;2.78;;;;;;;12.56;35.42;101175.75;4997531;28;97160;-70
2022/04/10 10:29:51;;;;;;;10.68;2.42;;;;;;;11.62;37.55;101183.47;4992084;28;98897;-71
2022/04/10 10:32:35;;;;;;;20.75;3.47;;;;;;;11.64;37.91;101179.84;4998508;28;99524;-70
2022/04/10 10:35:02;;;;;;;10.73;1.73;;;;;;;12.30;36.80;101174.03;4997982;28;98865;-71
2022/04/10 10:37:31;;;;;;;10.02;2.42;;;;;;;11.87;37.08;101171.19;4995781;28;97395;-70
2022/04/10 10:39:59;;;;;;;11.02;2.33;;;;;;;12.56;35.78;101178.41;4998299;28;98888;-71
2022/04/10 10:42:26;;;;;;;10.38;1.92;;;;;;;12.19;36.05;101173.56;4992778;28;99099;-72
2022/04/10 10:44:52;;;;;;;16.15;2.53;;;;;;;12.40;36.13;101161.34;5002195;28;97306;-70
2022/04/10 10:47:34;;;;;;;9.57;2.60;;;;;;;12.86;34.41;101157.84;4993497;28;97650;-70
2022/04/10 10:50:24;;;;;;;13.25;2.65;;;;;;;11.41;35.80;101163.84;4994927;28;97786;-69
2022/04/10 10:53:06;;;;;;;9.90;3.10;;;;;;;12.65;34.60;101162.16;4993300;28;98852;-70
2022/04/10 10:55:45;;;;;;;10.15;2.83;;;;;;;12.90;34.07;101161.22;4996032;28;96789;-70
2022/04/10 10:58:15;;;;;;;16.50;2.45;;;;;;;12.92;34.06;101170.88;4994353;28;96794;-69
2022/04/10 11:00:45;;;;;;;11.68;2.00;;;;;;;12.77;34.47;101166.13;4993203;28;99459;-69
2022/04/10 11:03:14;;;;;;;16.67;3.00;;;;;;;12.96;34.71;101155.69;4999345;28;98980;-70
2022/04/10 11:05:40;;;;;;;13.30;2.83;;;;;;;12.93;33.77;101166.44;4997494;28;99400;-70
2022/04/10 11:08:09;;;;;;;6.18;1.95;;;;;;;12.65;33.59;101161.31;5003748;28;97244;-69
2022/04/10 11:10:38;;;;;;;11.25;2.08;;;;;;;11.93;34.71;101166.53;4999256;28;98892;-71
2022/04/10 11:13:07;;;;;;;6.68;1.67;;;;;;;11.80;35.25;101167.88;4998115;28;97506;-70
2022/04/10 11:15:35;;;;;;;10.60;2.20;;;;;;;12.10;34.71;101173.88;5000289;28;97564;-70
2022/04/10 11:18:28;;;;;;;8.60;1.98;;;;;;;12.31;34.95;101173.13;5002691;28;97515;-69
2022/04/10 11:20:56;;;;;;;13.60;1.60;;;;;;;12.36;34.64;101181.78;4997164;28;99705;-70
2022/04/10 11:23:28;;;;;;;9.73;2.13;;;;;;;12.30;35.10;101179.34;5002114;28;99397;-70
2022/04/10 11:25:54;;;;;;;6.63;2.00;;;;;;;11.78;36.32;101197.94;5006768;28;97402;-70
2022/04/10 11:28:24;;;;;;;9.05;1.90;;;;;;;11.87;37.17;101197.66;4993297;28;97427;-72
2022/04/10 11:30:51;;;;;;;14.70;2.30;;;;;;;11.20;39.33;101194.50;4993512;28;99006;-70
2022/04/10 11:33:21;;;;;;;10.70;1.77;;;;;;;9.90;43.46;101197.28;5000045;28;98928;-71